createdAt,value
2019-04-27T00:04:19.393Z,5.80
2019-04-27T00:08:38.719Z,4.90
2019-04-27T00:12:42.948Z,4.33
2019-04-27T00:17:21.140Z,4.90
2019-04-27T00:21:32.829Z,4.73
2019-04-27T00:25:40.978Z,4.40
2019-04-27T00:29:48.749Z,4.40
2019-04-27T00:33:57.355Z,4.27
2019-04-27T00:38:30.236Z,4.27
2019-04-27T00:42:38.184Z,4.33
2019-04-27T00:46:46.002Z,4.93
2019-04-27T00:50:53.814Z,4.23
2019-04-27T00:55:03.105Z,5.57
2019-04-27T00:59:29.030Z,4.30
2019-04-27T01:03:40.577Z,4.63
2019-04-27T01:07:48.934Z,4.67
2019-04-27T01:11:57.237Z,5.33
2019-04-27T01:16:05.322Z,5.30
2019-04-27T01:20:14.006Z,5.43
2019-04-27T01:24:21.877Z,4.83
2019-04-27T01:28:34.611Z,4.80
2019-04-27T01:32:42.428Z,4.93
2019-04-27T01:36:50.751Z,4.80
2019-04-27T01:41:00.603Z,4.37
2019-04-27T01:45:08.907Z,4.17
2019-04-27T01:49:19.267Z,4.37
2019-04-27T01:53:28.575Z,3.93
2019-04-27T01:57:38.636Z,3.77
2019-04-27T02:02:04.658Z,4.20
2019-04-27T02:06:12.747Z,3.53
2019-04-27T02:10:20.988Z,4.13
2019-04-27T02:14:29.030Z,4.03
2019-04-27T02:18:38.256Z,3.93
2019-04-27T02:22:48.542Z,3.83
2019-04-27T02:26:56.427Z,3.40
2019-04-27T02:31:26.587Z,3.83
2019-04-27T02:35:34.479Z,3.80
2019-04-27T02:39:43.432Z,3.73
2019-04-27T02:44:09.556Z,3.73
2019-04-27T02:48:16.660Z,3.43
2019-04-27T02:52:35.855Z,3.73
2019-04-27T02:56:43.969Z,4.10
2019-04-27T03:00:51.634Z,3.87
2019-04-27T03:05:00.793Z,3.73
2019-04-27T03:09:10.427Z,4.07
2019-04-27T03:13:30.373Z,3.73
2019-04-27T03:17:52.998Z,3.70
2019-04-27T03:22:22.157Z,3.63
2019-04-27T03:26:50.058Z,4.47
2019-04-27T03:31:02.356Z,4.37
2019-04-27T03:35:12.970Z,4.37
2019-04-27T03:39:19.916Z,4.30
2019-04-27T03:43:30.207Z,3.90
2019-04-27T03:47:40.479Z,4.37
2019-04-27T03:52:03.029Z,5.30
2019-04-27T03:56:25.781Z,5.47
2019-04-27T04:00:34.019Z,5.33
2019-04-27T04:04:41.933Z,4.93
2019-04-27T04:08:52.962Z,5.10
2019-04-27T04:13:10.508Z,5.67
2019-04-27T04:17:20.374Z,5.90
2019-04-27T04:21:29.829Z,6.13
2019-04-27T04:25:40.948Z,5.87
2019-04-27T04:29:49.280Z,6.20
2019-04-27T04:33:59.793Z,6.80
2019-04-27T04:38:10.440Z,7.30
2019-04-27T04:42:36.280Z,6.07
2019-04-27T04:46:53.204Z,5.90
2019-04-27T04:51:00.671Z,5.60
2019-04-27T04:55:10.156Z,4.97
2019-04-27T04:59:20.182Z,5.87
2019-04-27T05:03:28.669Z,4.83
2019-04-27T05:07:38.622Z,5.50
2019-04-27T05:11:46.494Z,6.00
2019-04-27T05:15:54.726Z,6.57
2019-04-27T05:20:06.137Z,5.70
2019-04-27T05:24:14.118Z,6.17
2019-04-27T05:28:21.947Z,5.43
2019-04-27T05:32:30.469Z,4.60
2019-04-27T05:36:43.551Z,5.00
2019-04-27T05:40:49.718Z,5.30
2019-04-27T05:45:34.343Z,5.63
2019-04-27T05:49:44.689Z,4.80
2019-04-27T05:53:52.924Z,5.57
2019-04-27T05:58:00.730Z,6.27
2019-04-27T06:02:09.361Z,4.87
2019-04-27T06:06:19.729Z,5.37
2019-04-27T06:10:29.692Z,5.77
2019-04-27T06:14:39.250Z,4.80
2019-04-27T06:18:47.076Z,5.13
2019-04-27T06:22:54.771Z,6.20
2019-04-27T06:27:02.967Z,4.97
2019-04-27T06:31:11.119Z,5.70
2019-04-27T06:35:19.012Z,4.77
2019-04-27T06:39:26.810Z,5.23
2019-04-27T06:43:34.739Z,5.23
2019-04-27T06:47:42.540Z,4.43
2019-04-27T06:51:50.365Z,4.80
2019-04-27T06:55:58.661Z,5.17
2019-04-27T07:00:09.077Z,5.07
2019-04-27T07:04:19.415Z,4.97
2019-04-27T07:08:28.662Z,6.10
2019-04-27T07:12:38.726Z,6.00
2019-04-27T07:16:46.842Z,5.87
2019-04-27T07:20:55.257Z,5.17
2019-04-27T07:25:03.078Z,4.90
2019-04-27T07:29:11.196Z,6.07
2019-04-27T07:33:19.248Z,6.30
2019-04-27T07:37:26.954Z,6.20
2019-04-27T07:41:34.730Z,5.53
2019-04-27T07:45:43.035Z,6.20
2019-04-27T07:49:50.843Z,6.63
2019-04-27T07:53:58.979Z,8.33
2019-04-27T07:58:08.782Z,5.30
2019-04-27T08:02:16.840Z,6.20
2019-04-27T08:06:24.745Z,5.90
2019-04-27T08:10:32.598Z,5.63
2019-04-27T08:14:40.482Z,6.10
2019-04-27T08:18:49.641Z,5.87
2019-04-27T08:22:59.842Z,6.33
2019-04-27T08:27:36.994Z,6.80
2019-04-27T08:31:49.996Z,6.37
2019-04-27T08:35:59.055Z,6.83
2019-04-27T08:40:09.316Z,7.00
2019-04-27T08:44:17.462Z,6.77
2019-04-27T08:48:34.774Z,7.43
2019-04-27T08:52:34.777Z,6.53
2019-04-27T08:56:42.707Z,6.77
2019-04-27T09:00:50.315Z,8.10
2019-04-27T09:04:59.654Z,8.20
2019-04-27T09:09:12.843Z,8.23
2019-04-27T09:13:29.949Z,7.80
2019-04-27T09:17:46.164Z,5.07
2019-04-27T09:22:15.271Z,6.60
2019-04-27T09:26:14.341Z,5.47
2019-04-27T09:30:22.244Z,5.63
2019-04-27T09:34:30.470Z,5.33
2019-04-27T09:38:38.684Z,4.67
2019-04-27T09:42:46.512Z,5.17
2019-04-27T09:46:56.049Z,6.03
2019-04-27T09:51:06.457Z,5.10
2019-04-27T09:55:14.114Z,5.30
2019-04-27T09:59:22.069Z,5.07
2019-04-27T10:03:29.853Z,5.20
2019-04-27T10:07:37.471Z,4.53
2019-04-27T10:11:45.281Z,4.17
2019-04-27T10:15:53.181Z,4.33
2019-04-27T10:20:01.007Z,4.10
2019-04-27T10:24:08.910Z,3.90
2019-04-27T10:28:16.624Z,4.07
2019-04-27T10:32:26.061Z,4.03
2019-04-27T10:36:40.328Z,4.40
2019-04-27T10:40:48.132Z,4.50
2019-04-27T10:44:56.252Z,3.80
2019-04-27T10:49:05.884Z,4.20
2019-04-27T10:53:13.727Z,3.50
2019-04-27T10:57:22.048Z,4.33
2019-04-27T11:01:30.831Z,4.00
2019-04-27T11:06:01.071Z,3.80
2019-04-27T11:10:10.478Z,4.07
2019-04-27T11:14:18.043Z,3.47
2019-04-27T11:18:25.923Z,3.10
2019-04-27T11:22:34.106Z,4.17
2019-04-27T11:26:41.880Z,3.57
2019-04-27T11:30:49.793Z,3.27
2019-04-27T11:35:16.569Z,3.83
2019-04-27T11:39:26.022Z,3.20
2019-04-27T11:43:33.925Z,4.20
2019-04-27T11:47:41.606Z,3.57
2019-04-27T11:51:49.225Z,3.80
2019-04-27T11:55:57.136Z,4.10
2019-04-27T12:00:07.894Z,3.97
2019-04-27T12:04:16.137Z,4.00
2019-04-27T12:08:26.410Z,3.77
2019-04-27T12:12:36.264Z,4.70
2019-04-27T12:16:43.973Z,4.40
2019-04-27T12:20:52.177Z,4.73
2019-04-27T12:24:59.892Z,4.33
2019-04-27T12:29:11.128Z,5.27
2019-04-27T12:33:19.707Z,4.43
2019-04-27T12:37:27.394Z,4.70
2019-04-27T12:41:37.305Z,5.20
2019-04-27T12:45:46.020Z,6.47
2019-04-27T12:49:53.851Z,5.33
2019-04-27T12:54:33.024Z,6.00
2019-04-27T12:58:48.443Z,4.67
2019-04-27T13:02:57.715Z,4.63
2019-04-27T13:07:05.992Z,6.27
2019-04-27T13:11:13.826Z,5.17
2019-04-27T13:15:21.946Z,5.87
2019-04-27T13:19:31.182Z,4.83
2019-04-27T13:23:38.998Z,4.37
2019-04-27T13:27:47.916Z,4.80
2019-04-27T13:31:57.743Z,5.60
2019-04-27T13:36:07.576Z,5.30
2019-04-27T13:40:17.197Z,4.20
2019-04-27T13:44:26.151Z,5.10
2019-04-27T13:48:52.866Z,6.63
2019-04-27T13:53:01.027Z,5.70
2019-04-27T13:57:08.929Z,5.20
2019-04-27T14:01:17.285Z,5.50
2019-04-27T14:05:24.764Z,5.80
2019-04-27T14:09:32.755Z,5.37
2019-04-27T14:13:40.888Z,6.53
2019-04-27T14:17:50.026Z,7.17
2019-04-27T14:21:59.067Z,6.40
2019-04-27T14:26:08.787Z,5.67
2019-04-27T14:30:18.492Z,6.57
2019-04-27T14:34:26.166Z,7.37
2019-04-27T14:38:34.127Z,7.57
2019-04-27T14:42:42.207Z,5.00
2019-04-27T14:46:51.197Z,5.50
2019-04-27T14:50:59.210Z,6.57
2019-04-27T14:55:08.586Z,5.63
2019-04-27T14:59:16.398Z,6.67
2019-04-27T15:03:24.230Z,5.73
2019-04-27T15:07:32.043Z,6.90
2019-04-27T15:11:40.040Z,6.80
2019-04-27T15:15:47.579Z,6.83
2019-04-27T15:20:00.900Z,7.23
2019-04-27T15:24:09.991Z,5.70
2019-04-27T15:28:22.746Z,7.27
2019-04-27T15:32:42.368Z,9.07
2019-04-27T15:37:00.100Z,8.33
2019-04-27T15:41:15.700Z,8.60
2019-04-27T15:45:24.479Z,16.03
2019-04-27T15:49:32.724Z,10.47
2019-04-27T15:53:41.811Z,10.47
2019-04-27T15:57:50.533Z,9.50
2019-04-27T16:01:58.616Z,10.27
2019-04-27T16:06:08.214Z,11.67
2019-04-27T16:10:17.708Z,10.27
2019-04-27T16:14:26.138Z,11.10
2019-04-27T16:18:34.056Z,17.97
2019-04-27T16:22:42.299Z,11.07
2019-04-27T16:26:52.300Z,11.50
2019-04-27T16:30:59.739Z,10.97
2019-04-27T16:35:13.667Z,10.70
2019-04-27T16:39:20.379Z,10.80
2019-04-27T16:43:32.524Z,9.37
2019-04-27T16:47:38.394Z,11.47
2019-04-27T16:51:46.178Z,12.67
2019-04-27T16:56:11.371Z,16.13
2019-04-27T17:00:18.505Z,13.60
2019-04-27T17:04:26.130Z,15.33
2019-04-27T17:08:34.014Z,13.13
2019-04-27T17:12:45.917Z,16.03
2019-04-27T17:17:03.653Z,15.17
2019-04-27T17:21:19.038Z,17.77
2019-04-27T17:25:23.423Z,17.70
2019-04-27T17:29:34.218Z,19.00
2019-04-27T17:33:48.719Z,18.40
2019-04-27T17:37:59.373Z,20.50
2019-04-27T17:42:08.445Z,17.07
2019-04-27T17:46:16.750Z,19.90
2019-04-27T17:50:26.106Z,17.83
2019-04-27T17:54:34.734Z,19.63
2019-04-27T17:58:42.636Z,21.03
2019-04-27T18:02:50.440Z,19.27
2019-04-27T18:07:02.085Z,23.20
2019-04-27T18:11:08.769Z,19.13
2019-04-27T18:15:16.850Z,19.93
2019-04-27T18:19:36.309Z,17.90
2019-04-27T18:23:52.276Z,18.63
2019-04-27T18:28:14.834Z,15.90
2019-04-27T18:32:23.478Z,19.50
2019-04-27T18:36:31.443Z,18.53
2019-04-27T18:40:40.096Z,15.83
2019-04-27T18:44:48.572Z,16.23
2019-04-27T18:49:15.265Z,16.63
2019-04-27T18:53:26.330Z,17.03
2019-04-27T18:57:34.632Z,15.57
2019-04-27T19:01:43.386Z,16.10
2019-04-27T19:05:51.409Z,16.00
2019-04-27T19:09:59.302Z,20.80
2019-04-27T19:14:08.309Z,17.80
2019-04-27T19:18:18.690Z,14.73
2019-04-27T19:22:27.967Z,17.63
2019-04-27T19:26:55.137Z,16.87
2019-04-27T19:31:08.274Z,22.83
2019-04-27T19:35:16.057Z,18.57
2019-04-27T19:39:24.573Z,17.77
2019-04-27T19:43:32.448Z,16.90
2019-04-27T19:47:40.135Z,20.50
2019-04-27T19:51:48.647Z,17.73
2019-04-27T19:56:02.390Z,17.73
2019-04-27T20:00:19.626Z,19.33
2019-04-27T20:04:32.255Z,15.77
2019-04-27T20:08:41.801Z,15.23
2019-04-27T20:12:50.957Z,15.70
2019-04-27T20:16:59.133Z,17.97
2019-04-27T20:21:06.729Z,17.67
2019-04-27T20:25:14.667Z,15.70
2019-04-27T20:29:22.566Z,14.07
2019-04-27T20:33:31.150Z,14.17
2019-04-27T20:37:41.444Z,15.03
2019-04-27T20:41:50.754Z,15.10
2019-04-27T20:46:00.758Z,13.50
2019-04-27T20:50:08.981Z,14.20
2019-04-27T20:54:17.195Z,13.83
2019-04-27T20:58:25.433Z,15.47
2019-04-27T21:03:07.922Z,18.60
2019-04-27T21:07:15.400Z,18.10
2019-04-27T21:11:22.978Z,18.77
2019-04-27T21:15:31.525Z,18.93
2019-04-27T21:19:41.356Z,17.93
2019-04-27T21:23:51.363Z,17.07
2019-04-27T21:27:58.726Z,17.00
2019-04-27T21:32:07.909Z,17.90
2019-04-27T21:36:17.506Z,18.90
2019-04-27T21:40:25.225Z,18.33
2019-04-27T21:44:34.143Z,17.97
2019-04-27T21:48:42.161Z,18.97
2019-04-27T21:53:00.607Z,21.90
2019-04-27T21:57:11.000Z,20.77
2019-04-27T22:01:31.806Z,22.60
2019-04-27T22:05:41.736Z,19.20
2019-04-27T22:09:51.563Z,22.20
2019-04-27T22:14:01.205Z,20.93
2019-04-27T22:18:08.982Z,18.77
2019-04-27T22:22:29.269Z,16.87
2019-04-27T22:26:37.611Z,19.80
2019-04-27T22:30:45.413Z,21.57
2019-04-27T22:34:54.044Z,21.67
2019-04-27T22:39:11.905Z,19.70
2019-04-27T22:43:38.480Z,17.07
2019-04-27T22:47:46.140Z,17.53
2019-04-27T22:51:54.072Z,18.80
2019-04-27T22:56:16.962Z,18.80
2019-04-27T23:00:56.047Z,18.33
2019-04-27T23:05:05.730Z,17.97
2019-04-27T23:09:14.342Z,18.30
2019-04-27T23:13:22.155Z,20.03
2019-04-27T23:17:58.885Z,20.83
2019-04-27T23:22:07.028Z,16.20
2019-04-27T23:26:14.921Z,15.80
2019-04-27T23:30:28.429Z,18.73
2019-04-27T23:34:36.150Z,18.43
2019-04-27T23:38:43.725Z,16.60
2019-04-27T23:42:51.712Z,17.43
2019-04-27T23:47:00.468Z,18.63
2019-04-27T23:51:20.484Z,18.77
2019-04-27T23:55:31.826Z,16.50
2019-04-27T23:59:41.649Z,18.03
